sensor_id;sensor_type;location;lat;lon;timestamp;P1;durP1;ratioP1;P2;durP2;ratioP2
317;SDS011;146;53.448;10.228;2023-10-31T00:02:24;6.70;;;5.80;;
317;SDS011;146;53.448;10.228;2023-10-31T00:04:54;6.93;;;6.23;;
317;SDS011;146;53.448;10.228;2023-10-31T00:07:21;6.67;;;6.07;;
317;SDS011;146;53.448;10.228;2023-10-31T00:09:48;5.50;;;5.10;;
317;SDS011;146;53.448;10.228;2023-10-31T00:12:23;7.83;;;6.30;;
317;SDS011;146;53.448;10.228;2023-10-31T00:14:51;5.40;;;4.90;;
317;SDS011;146;53.448;10.228;2023-10-31T00:17:19;5.47;;;4.90;;
317;SDS011;146;53.448;10.228;2023-10-31T00:19:46;5.77;;;5.20;;
317;SDS011;146;53.448;10.228;2023-10-31T00:22:14;5.77;;;5.20;;
317;SDS011;146;53.448;10.228;2023-10-31T00:24:41;6.27;;;5.67;;
317;SDS011;146;53.448;10.228;2023-10-31T00:27:08;7.17;;;5.47;;
317;SDS011;146;53.448;10.228;2023-10-31T00:29:35;7.40;;;5.40;;
317;SDS011;146;53.448;10.228;2023-10-31T00:32:02;8.00;;;5.27;;
317;SDS011;146;53.448;10.228;2023-10-31T00:34:35;5.90;;;5.47;;
317;SDS011;146;53.448;10.228;2023-10-31T00:37:07;9.00;;;5.47;;
317;SDS011;146;53.448;10.228;2023-10-31T00:39:35;5.23;;;4.60;;
317;SDS011;146;53.448;10.228;2023-10-31T00:42:02;6.10;;;5.50;;
317;SDS011;146;53.448;10.228;2023-10-31T00:44:35;5.57;;;5.07;;
317;SDS011;146;53.448;10.228;2023-10-31T00:47:02;6.97;;;5.70;;
317;SDS011;146;53.448;10.228;2023-10-31T00:49:39;5.50;;;5.00;;
317;SDS011;146;53.448;10.228;2023-10-31T00:52:09;7.30;;;6.40;;
317;SDS011;146;53.448;10.228;2023-10-31T00:54:37;6.10;;;5.60;;
317;SDS011;146;53.448;10.228;2023-10-31T00:57:04;5.87;;;5.37;;
317;SDS011;146;53.448;10.228;2023-10-31T00:59:40;6.33;;;5.70;;
317;SDS011;146;53.448;10.228;2023-10-31T01:02:07;5.27;;;4.87;;
317;SDS011;146;53.448;10.228;2023-10-31T01:04:35;5.33;;;4.60;;
317;SDS011;146;53.448;10.228;2023-10-31T01:07:04;8.03;;;5.00;;
317;SDS011;146;53.448;10.228;2023-10-31T01:09:43;7.43;;;5.60;;
317;SDS011;146;53.448;10.228;2023-10-31T01:12:13;5.90;;;5.37;;
317;SDS011;146;53.448;10.228;2023-10-31T01:14:40;6.53;;;5.93;;
317;SDS011;146;53.448;10.228;2023-10-31T01:17:06;7.50;;;5.40;;
317;SDS011;146;53.448;10.228;2023-10-31T01:19:36;6.30;;;5.80;;
317;SDS011;146;53.448;10.228;2023-10-31T01:22:06;5.80;;;5.20;;
317;SDS011;146;53.448;10.228;2023-10-31T01:24:33;6.93;;;6.30;;
317;SDS011;146;53.448;10.228;2023-10-31T01:27:02;9.13;;;5.63;;
317;SDS011;146;53.448;10.228;2023-10-31T01:29:29;6.87;;;6.23;;
317;SDS011;146;53.448;10.228;2023-10-31T01:32:02;6.20;;;5.60;;
317;SDS011;146;53.448;10.228;2023-10-31T01:34:29;6.50;;;5.80;;
317;SDS011;146;53.448;10.228;2023-10-31T01:36:55;5.87;;;5.13;;
317;SDS011;146;53.448;10.228;2023-10-31T01:39:22;5.43;;;4.93;;
317;SDS011;146;53.448;10.228;2023-10-31T01:41:49;7.70;;;6.37;;
317;SDS011;146;53.448;10.228;2023-10-31T01:44:21;6.27;;;5.67;;
317;SDS011;146;53.448;10.228;2023-10-31T01:46:47;6.23;;;5.40;;
317;SDS011;146;53.448;10.228;2023-10-31T01:49:14;6.23;;;5.63;;
317;SDS011;146;53.448;10.228;2023-10-31T01:51:44;5.63;;;5.13;;
317;SDS011;146;53.448;10.228;2023-10-31T01:54:12;6.03;;;5.50;;
317;SDS011;146;53.448;10.228;2023-10-31T01:56:40;6.30;;;5.70;;
317;SDS011;146;53.448;10.228;2023-10-31T01:59:07;6.03;;;5.53;;
317;SDS011;146;53.448;10.228;2023-10-31T02:01:39;5.50;;;4.90;;
317;SDS011;146;53.448;10.228;2023-10-31T02:04:06;6.77;;;5.70;;
317;SDS011;146;53.448;10.228;2023-10-31T02:06:41;6.17;;;5.57;;
317;SDS011;146;53.448;10.228;2023-10-31T02:09:08;7.50;;;6.33;;
317;SDS011;146;53.448;10.228;2023-10-31T02:11:37;5.20;;;4.80;;
317;SDS011;146;53.448;10.228;2023-10-31T02:14:10;6.10;;;5.60;;
317;SDS011;146;53.448;10.228;2023-10-31T02:16:43;5.70;;;5.20;;
317;SDS011;146;53.448;10.228;2023-10-31T02:19:10;7.10;;;6.30;;
317;SDS011;146;53.448;10.228;2023-10-31T02:21:40;5.43;;;5.03;;
317;SDS011;146;53.448;10.228;2023-10-31T02:24:07;5.80;;;5.30;;
317;SDS011;146;53.448;10.228;2023-10-31T02:26:34;6.63;;;6.03;;
317;SDS011;146;53.448;10.228;2023-10-31T02:29:01;6.60;;;6.00;;
317;SDS011;146;53.448;10.228;2023-10-31T02:31:31;6.70;;;6.00;;
317;SDS011;146;53.448;10.228;2023-10-31T02:34:01;6.27;;;5.77;;
317;SDS011;146;53.448;10.228;2023-10-31T02:36:28;5.33;;;4.93;;
317;SDS011;146;53.448;10.228;2023-10-31T02:39:00;6.70;;;6.10;;
317;SDS011;146;53.448;10.228;2023-10-31T02:41:27;7.00;;;5.90;;
317;SDS011;146;53.448;10.228;2023-10-31T02:44:00;6.20;;;5.60;;
317;SDS011;146;53.448;10.228;2023-10-31T02:46:27;7.13;;;5.87;;
317;SDS011;146;53.448;10.228;2023-10-31T02:48:53;6.50;;;5.83;;
317;SDS011;146;53.448;10.228;2023-10-31T02:51:28;8.23;;;5.97;;
317;SDS011;146;53.448;10.228;2023-10-31T02:54:02;6.50;;;6.00;;
317;SDS011;146;53.448;10.228;2023-10-31T02:56:29;7.43;;;6.23;;
317;SDS011;146;53.448;10.228;2023-10-31T02:58:56;7.90;;;7.10;;
317;SDS011;146;53.448;10.228;2023-10-31T03:01:35;8.60;;;6.20;;
317;SDS011;146;53.448;10.228;2023-10-31T03:04:07;7.20;;;6.60;;
317;SDS011;146;53.448;10.228;2023-10-31T03:06:33;8.47;;;7.70;;
317;SDS011;146;53.448;10.228;2023-10-31T03:09:13;10.50;;;8.37;;
317;SDS011;146;53.448;10.228;2023-10-31T03:11:40;8.07;;;7.43;;
317;SDS011;146;53.448;10.228;2023-10-31T03:14:15;8.53;;;7.63;;
317;SDS011;146;53.448;10.228;2023-10-31T03:16:42;9.27;;;8.37;;
317;SDS011;146;53.448;10.228;2023-10-31T03:19:15;10.10;;;9.10;;
317;SDS011;146;53.448;10.228;2023-10-31T03:21:44;9.83;;;8.43;;
317;SDS011;146;53.448;10.228;2023-10-31T03:24:12;9.83;;;8.93;;
317;SDS011;146;53.448;10.228;2023-10-31T03:26:39;12.83;;;9.07;;
317;SDS011;146;53.448;10.228;2023-10-31T03:29:09;9.57;;;8.00;;
317;SDS011;146;53.448;10.228;2023-10-31T03:31:36;9.53;;;8.73;;
317;SDS011;146;53.448;10.228;2023-10-31T03:34:02;10.20;;;9.07;;
317;SDS011;146;53.448;10.228;2023-10-31T03:36:29;9.83;;;8.83;;
317;SDS011;146;53.448;10.228;2023-10-31T03:38:59;8.83;;;7.93;;
317;SDS011;146;53.448;10.228;2023-10-31T03:41:27;10.07;;;9.00;;
317;SDS011;146;53.448;10.228;2023-10-31T03:43:54;9.40;;;8.50;;
317;SDS011;146;53.448;10.228;2023-10-31T03:46:21;9.40;;;8.60;;
317;SDS011;146;53.448;10.228;2023-10-31T03:48:48;10.10;;;9.30;;
317;SDS011;146;53.448;10.228;2023-10-31T03:51:14;8.70;;;7.90;;
317;SDS011;146;53.448;10.228;2023-10-31T03:53:41;8.27;;;7.47;;
317;SDS011;146;53.448;10.228;2023-10-31T03:56:08;10.00;;;8.53;;
317;SDS011;146;53.448;10.228;2023-10-31T03:58:43;9.43;;;8.30;;
317;SDS011;146;53.448;10.228;2023-10-31T04:01:11;8.40;;;7.73;;
317;SDS011;146;53.448;10.228;2023-10-31T04:03:37;8.70;;;6.40;;
317;SDS011;146;53.448;10.228;2023-10-31T04:06:04;9.37;;;6.73;;
317;SDS011;146;53.448;10.228;2023-10-31T04:08:40;8.07;;;7.27;;
317;SDS011;146;53.448;10.228;2023-10-31T04:11:07;7.30;;;6.60;;
317;SDS011;146;53.448;10.228;2023-10-31T04:13:38;8.33;;;7.53;;
317;SDS011;146;53.448;10.228;2023-10-31T04:16:05;10.30;;;7.60;;
317;SDS011;146;53.448;10.228;2023-10-31T04:18:32;7.80;;;7.10;;
317;SDS011;146;53.448;10.228;2023-10-31T04:20:59;7.53;;;6.80;;
317;SDS011;146;53.448;10.228;2023-10-31T04:23:26;8.20;;;7.50;;
317;SDS011;146;53.448;10.228;2023-10-31T04:25:52;8.20;;;7.40;;
317;SDS011;146;53.448;10.228;2023-10-31T04:28:19;8.73;;;7.93;;
317;SDS011;146;53.448;10.228;2023-10-31T04:30:50;8.93;;;7.87;;
317;SDS011;146;53.448;10.228;2023-10-31T04:33:17;8.40;;;7.70;;
317;SDS011;146;53.448;10.228;2023-10-31T04:35:44;8.97;;;8.00;;
317;SDS011;146;53.448;10.228;2023-10-31T04:38:17;9.00;;;8.00;;
317;SDS011;146;53.448;10.228;2023-10-31T04:40:55;8.63;;;7.90;;
317;SDS011;146;53.448;10.228;2023-10-31T04:43:34;8.30;;;7.60;;
317;SDS011;146;53.448;10.228;2023-10-31T04:46:02;9.70;;;8.90;;
317;SDS011;146;53.448;10.228;2023-10-31T04:48:29;9.97;;;9.00;;
317;SDS011;146;53.448;10.228;2023-10-31T04:50:57;9.37;;;8.50;;
317;SDS011;146;53.448;10.228;2023-10-31T04:53:24;9.80;;;8.80;;
317;SDS011;146;53.448;10.228;2023-10-31T04:55:54;11.80;;;9.53;;
317;SDS011;146;53.448;10.228;2023-10-31T04:58:21;10.63;;;9.73;;
317;SDS011;146;53.448;10.228;2023-10-31T05:00:50;10.83;;;9.83;;
317;SDS011;146;53.448;10.228;2023-10-31T05:03:19;10.50;;;9.63;;
317;SDS011;146;53.448;10.228;2023-10-31T05:05:52;10.77;;;9.70;;
317;SDS011;146;53.448;10.228;2023-10-31T05:08:21;9.50;;;8.70;;
317;SDS011;146;53.448;10.228;2023-10-31T05:10:48;10.63;;;9.63;;
317;SDS011;146;53.448;10.228;2023-10-31T05:13:15;10.70;;;9.60;;
317;SDS011;146;53.448;10.228;2023-10-31T05:15:49;9.80;;;8.90;;
317;SDS011;146;53.448;10.228;2023-10-31T05:18:23;11.90;;;9.53;;
317;SDS011;146;53.448;10.228;2023-10-31T05:20:50;11.03;;;10.07;;
317;SDS011;146;53.448;10.228;2023-10-31T05:23:19;10.77;;;9.77;;
317;SDS011;146;53.448;10.228;2023-10-31T05:25:46;11.27;;;10.27;;
317;SDS011;146;53.448;10.228;2023-10-31T05:28:13;11.80;;;10.60;;
317;SDS011;146;53.448;10.228;2023-10-31T05:30:40;11.33;;;10.27;;
317;SDS011;146;53.448;10.228;2023-10-31T05:33:06;12.37;;;11.07;;
317;SDS011;146;53.448;10.228;2023-10-31T05:35:34;11.87;;;10.77;;
317;SDS011;146;53.448;10.228;2023-10-31T05:38:01;11.57;;;10.40;;
317;SDS011;146;53.448;10.228;2023-10-31T05:40:28;11.83;;;10.63;;
317;SDS011;146;53.448;10.228;2023-10-31T05:43:03;21.63;;;11.07;;
317;SDS011;146;53.448;10.228;2023-10-31T05:45:30;12.87;;;11.67;;
317;SDS011;146;53.448;10.228;2023-10-31T05:48:08;12.13;;;10.73;;
317;SDS011;146;53.448;10.228;2023-10-31T05:50:36;11.10;;;10.17;;
317;SDS011;146;53.448;10.228;2023-10-31T05:53:06;12.30;;;11.20;;
317;SDS011;146;53.448;10.228;2023-10-31T05:55:42;12.53;;;11.30;;
317;SDS011;146;53.448;10.228;2023-10-31T05:58:12;12.90;;;11.60;;
317;SDS011;146;53.448;10.228;2023-10-31T06:00:41;11.60;;;10.40;;
317;SDS011;146;53.448;10.228;2023-10-31T06:03:10;11.97;;;10.70;;
317;SDS011;146;53.448;10.228;2023-10-31T06:05:40;12.60;;;10.97;;
317;SDS011;146;53.448;10.228;2023-10-31T06:08:12;11.70;;;10.70;;
317;SDS011;146;53.448;10.228;2023-10-31T06:10:41;11.97;;;10.77;;
317;SDS011;146;53.448;10.228;2023-10-31T06:13:14;10.43;;;9.40;;
317;SDS011;146;53.448;10.228;2023-10-31T06:15:41;10.50;;;9.50;;
317;SDS011;146;53.448;10.228;2023-10-31T06:18:07;10.93;;;9.93;;
317;SDS011;146;53.448;10.228;2023-10-31T06:20:34;12.40;;;10.03;;
317;SDS011;146;53.448;10.228;2023-10-31T06:23:10;10.87;;;9.77;;
317;SDS011;146;53.448;10.228;2023-10-31T06:25:43;10.70;;;9.73;;
317;SDS011;146;53.448;10.228;2023-10-31T06:28:10;10.80;;;9.80;;
317;SDS011;146;53.448;10.228;2023-10-31T06:30:39;10.83;;;9.40;;
317;SDS011;146;53.448;10.228;2023-10-31T06:33:09;11.17;;;9.10;;
317;SDS011;146;53.448;10.228;2023-10-31T06:35:35;6.67;;;6.17;;
317;SDS011;146;53.448;10.228;2023-10-31T06:38:03;5.83;;;5.37;;
317;SDS011;146;53.448;10.228;2023-10-31T06:40:30;4.97;;;4.60;;
317;SDS011;146;53.448;10.228;2023-10-31T06:43:00;3.47;;;3.27;;
317;SDS011;146;53.448;10.228;2023-10-31T06:45:27;3.60;;;3.30;;
317;SDS011;146;53.448;10.228;2023-10-31T06:47:57;3.03;;;2.83;;
317;SDS011;146;53.448;10.228;2023-10-31T06:50:24;2.37;;;2.20;;
317;SDS011;146;53.448;10.228;2023-10-31T06:52:54;2.60;;;2.37;;
317;SDS011;146;53.448;10.228;2023-10-31T06:55:27;1.77;;;1.67;;
317;SDS011;146;53.448;10.228;2023-10-31T06:58:06;1.90;;;1.80;;
317;SDS011;146;53.448;10.228;2023-10-31T07:00:33;1.80;;;1.70;;
317;SDS011;146;53.448;10.228;2023-10-31T07:03:03;2.30;;;2.20;;
317;SDS011;146;53.448;10.228;2023-10-31T07:05:38;2.17;;;2.07;;
317;SDS011;146;53.448;10.228;2023-10-31T07:08:15;2.50;;;2.30;;
317;SDS011;146;53.448;10.228;2023-10-31T07:10:44;2.70;;;2.60;;
317;SDS011;146;53.448;10.228;2023-10-31T07:13:11;3.13;;;2.93;;
317;SDS011;146;53.448;10.228;2023-10-31T07:15:38;4.03;;;3.73;;
317;SDS011;146;53.448;10.228;2023-10-31T07:18:18;4.53;;;4.00;;
317;SDS011;146;53.448;10.228;2023-10-31T07:20:48;5.03;;;4.47;;
317;SDS011;146;53.448;10.228;2023-10-31T07:23:17;5.60;;;5.20;;
317;SDS011;146;53.448;10.228;2023-10-31T07:25:45;6.23;;;5.73;;
317;SDS011;146;53.448;10.228;2023-10-31T07:28:12;6.70;;;6.10;;
317;SDS011;146;53.448;10.228;2023-10-31T07:30:39;7.87;;;7.03;;
317;SDS011;146;53.448;10.228;2023-10-31T07:33:06;8.03;;;6.70;;
317;SDS011;146;53.448;10.228;2023-10-31T07:35:38;8.57;;;7.70;;
317;SDS011;146;53.448;10.228;2023-10-31T07:38:05;9.83;;;8.80;;
317;SDS011;146;53.448;10.228;2023-10-31T07:40:32;8.80;;;7.90;;
317;SDS011;146;53.448;10.228;2023-10-31T07:43:03;8.57;;;7.57;;
317;SDS011;146;53.448;10.228;2023-10-31T07:45:30;9.83;;;8.13;;
317;SDS011;146;53.448;10.228;2023-10-31T07:47:57;7.70;;;7.00;;
317;SDS011;146;53.448;10.228;2023-10-31T07:50:24;6.67;;;6.03;;
317;SDS011;146;53.448;10.228;2023-10-31T07:52:54;7.40;;;5.83;;
317;SDS011;146;53.448;10.228;2023-10-31T07:55:20;3.40;;;3.10;;
317;SDS011;146;53.448;10.228;2023-10-31T07:57:52;2.20;;;2.10;;
317;SDS011;146;53.448;10.228;2023-10-31T08:00:28;3.53;;;1.90;;
317;SDS011;146;53.448;10.228;2023-10-31T08:02:55;1.50;;;1.37;;
317;SDS011;146;53.448;10.228;2023-10-31T08:05:28;1.40;;;1.30;;
317;SDS011;146;53.448;10.228;2023-10-31T08:07:55;1.80;;;1.57;;
317;SDS011;146;53.448;10.228;2023-10-31T08:10:25;1.50;;;1.40;;
317;SDS011;146;53.448;10.228;2023-10-31T08:12:56;1.23;;;1.17;;
317;SDS011;146;53.448;10.228;2023-10-31T08:15:30;1.00;;;1.00;;
317;SDS011;146;53.448;10.228;2023-10-31T08:17:57;0.93;;;0.93;;
317;SDS011;146;53.448;10.228;2023-10-31T08:20:24;1.00;;;0.80;;
317;SDS011;146;53.448;10.228;2023-10-31T08:22:50;2.20;;;1.30;;
317;SDS011;146;53.448;10.228;2023-10-31T08:25:17;0.67;;;0.67;;
317;SDS011;146;53.448;10.228;2023-10-31T08:27:44;1.83;;;0.93;;
317;SDS011;146;53.448;10.228;2023-10-31T08:30:13;0.73;;;0.70;;
317;SDS011;146;53.448;10.228;2023-10-31T08:32:42;0.70;;;0.70;;
317;SDS011;146;53.448;10.228;2023-10-31T08:35:08;0.60;;;0.60;;
317;SDS011;146;53.448;10.228;2023-10-31T08:37:41;0.57;;;0.50;;
317;SDS011;146;53.448;10.228;2023-10-31T08:40:08;0.70;;;0.50;;
317;SDS011;146;53.448;10.228;2023-10-31T08:42:35;1.33;;;0.93;;
317;SDS011;146;53.448;10.228;2023-10-31T08:45:05;0.93;;;0.93;;
317;SDS011;146;53.448;10.228;2023-10-31T08:47:33;0.77;;;0.77;;
317;SDS011;146;53.448;10.228;2023-10-31T08:50:01;0.90;;;0.90;;
317;SDS011;146;53.448;10.228;2023-10-31T08:52:28;0.83;;;0.80;;
317;SDS011;146;53.448;10.228;2023-10-31T08:54:55;2.23;;;1.80;;
317;SDS011;146;53.448;10.228;2023-10-31T08:57:22;2.00;;;1.80;;
317;SDS011;146;53.448;10.228;2023-10-31T08:59:48;1.73;;;1.37;;
317;SDS011;146;53.448;10.228;2023-10-31T09:02:15;3.50;;;1.77;;
317;SDS011;146;53.448;10.228;2023-10-31T09:04:45;1.30;;;1.10;;
317;SDS011;146;53.448;10.228;2023-10-31T09:07:16;2.43;;;0.80;;
317;SDS011;146;53.448;10.228;2023-10-31T09:09:43;0.80;;;0.80;;
317;SDS011;146;53.448;10.228;2023-10-31T09:12:10;0.80;;;0.80;;
317;SDS011;146;53.448;10.228;2023-10-31T09:14:52;0.90;;;0.90;;
317;SDS011;146;53.448;10.228;2023-10-31T09:17:24;0.80;;;0.80;;
317;SDS011;146;53.448;10.228;2023-10-31T09:19:51;0.70;;;0.70;;
317;SDS011;146;53.448;10.228;2023-10-31T09:22:28;0.63;;;0.50;;
317;SDS011;146;53.448;10.228;2023-10-31T09:24:55;3.03;;;0.70;;
317;SDS011;146;53.448;10.228;2023-10-31T09:27:22;0.77;;;0.77;;
317;SDS011;146;53.448;10.228;2023-10-31T09:29:52;0.77;;;0.77;;
317;SDS011;146;53.448;10.228;2023-10-31T09:32:24;0.70;;;0.50;;
317;SDS011;146;53.448;10.228;2023-10-31T09:34:51;0.40;;;0.40;;
317;SDS011;146;53.448;10.228;2023-10-31T09:37:18;0.70;;;0.70;;
317;SDS011;146;53.448;10.228;2023-10-31T09:39:46;1.20;;;1.07;;
317;SDS011;146;53.448;10.228;2023-10-31T09:42:13;0.73;;;0.57;;
317;SDS011;146;53.448;10.228;2023-10-31T09:44:43;1.70;;;0.80;;
317;SDS011;146;53.448;10.228;2023-10-31T09:47:10;1.50;;;0.70;;
317;SDS011;146;53.448;10.228;2023-10-31T09:49:44;0.90;;;0.63;;
317;SDS011;146;53.448;10.228;2023-10-31T09:52:11;1.43;;;0.60;;
317;SDS011;146;53.448;10.228;2023-10-31T09:54:40;2.77;;;0.93;;
317;SDS011;146;53.448;10.228;2023-10-31T09:57:17;0.83;;;0.80;;
317;SDS011;146;53.448;10.228;2023-10-31T09:59:44;0.80;;;0.53;;
317;SDS011;146;53.448;10.228;2023-10-31T10:02:11;0.53;;;0.47;;
317;SDS011;146;53.448;10.228;2023-10-31T10:04:37;0.70;;;0.70;;
317;SDS011;146;53.448;10.228;2023-10-31T10:07:04;0.70;;;0.70;;
317;SDS011;146;53.448;10.228;2023-10-31T10:09:31;1.03;;;0.80;;
317;SDS011;146;53.448;10.228;2023-10-31T10:12:06;1.67;;;1.27;;
317;SDS011;146;53.448;10.228;2023-10-31T10:14:35;0.70;;;0.60;;
317;SDS011;146;53.448;10.228;2023-10-31T10:17:01;0.87;;;0.80;;
317;SDS011;146;53.448;10.228;2023-10-31T10:19:40;1.33;;;1.13;;
317;SDS011;146;53.448;10.228;2023-10-31T10:22:07;0.90;;;0.90;;
317;SDS011;146;53.448;10.228;2023-10-31T10:24:35;1.77;;;1.00;;
317;SDS011;146;53.448;10.228;2023-10-31T10:27:07;2.37;;;1.33;;
317;SDS011;146;53.448;10.228;2023-10-31T10:29:38;1.83;;;1.53;;
317;SDS011;146;53.448;10.228;2023-10-31T10:32:09;1.93;;;1.83;;
317;SDS011;146;53.448;10.228;2023-10-31T10:34:41;2.20;;;1.80;;
317;SDS011;146;53.448;10.228;2023-10-31T10:37:11;2.60;;;2.40;;
317;SDS011;146;53.448;10.228;2023-10-31T10:39:39;2.70;;;2.43;;
317;SDS011;146;53.448;10.228;2023-10-31T10:42:09;2.30;;;2.10;;
317;SDS011;146;53.448;10.228;2023-10-31T10:44:45;2.37;;;2.17;;
317;SDS011;146;53.448;10.228;2023-10-31T10:47:14;2.47;;;2.10;;
317;SDS011;146;53.448;10.228;2023-10-31T10:49:43;2.20;;;1.83;;
317;SDS011;146;53.448;10.228;2023-10-31T10:52:17;1.63;;;1.53;;
317;SDS011;146;53.448;10.228;2023-10-31T10:54:49;1.60;;;1.50;;
317;SDS011;146;53.448;10.228;2023-10-31T10:57:31;3.03;;;1.37;;
317;SDS011;146;53.448;10.228;2023-10-31T11:00:15;1.70;;;1.27;;
317;SDS011;146;53.448;10.228;2023-10-31T11:02:45;1.17;;;1.10;;
317;SDS011;146;53.448;10.228;2023-10-31T11:05:13;2.77;;;1.70;;
317;SDS011;146;53.448;10.228;2023-10-31T11:07:43;1.30;;;1.20;;
317;SDS011;146;53.448;10.228;2023-10-31T11:10:11;1.50;;;1.40;;
317;SDS011;146;53.448;10.228;2023-10-31T11:12:45;2.80;;;1.20;;
317;SDS011;146;53.448;10.228;2023-10-31T11:15:12;2.07;;;1.87;;
317;SDS011;146;53.448;10.228;2023-10-31T11:17:49;1.23;;;1.13;;
317;SDS011;146;53.448;10.228;2023-10-31T11:20:18;1.20;;;1.20;;
317;SDS011;146;53.448;10.228;2023-10-31T11:22:46;1.07;;;0.90;;
317;SDS011;146;53.448;10.228;2023-10-31T11:25:22;1.10;;;1.10;;
317;SDS011;146;53.448;10.228;2023-10-31T11:27:52;1.43;;;1.33;;
317;SDS011;146;53.448;10.228;2023-10-31T11:30:28;1.40;;;1.30;;
317;SDS011;146;53.448;10.228;2023-10-31T11:32:58;1.93;;;1.20;;
317;SDS011;146;53.448;10.228;2023-10-31T11:35:26;4.80;;;2.17;;
317;SDS011;146;53.448;10.228;2023-10-31T11:38:00;1.73;;;1.50;;
317;SDS011;146;53.448;10.228;2023-10-31T11:40:29;1.30;;;1.20;;
317;SDS011;146;53.448;10.228;2023-10-31T11:43:00;1.87;;;1.40;;
317;SDS011;146;53.448;10.228;2023-10-31T11:45:33;1.77;;;1.67;;
317;SDS011;146;53.448;10.228;2023-10-31T11:48:00;1.50;;;1.40;;
317;SDS011;146;53.448;10.228;2023-10-31T11:50:29;1.30;;;1.20;;
317;SDS011;146;53.448;10.228;2023-10-31T11:53:11;1.03;;;1.03;;
317;SDS011;146;53.448;10.228;2023-10-31T11:55:39;1.00;;;1.00;;
317;SDS011;146;53.448;10.228;2023-10-31T11:58:14;2.07;;;1.07;;
317;SDS011;146;53.448;10.228;2023-10-31T12:00:46;1.20;;;1.10;;
317;SDS011;146;53.448;10.228;2023-10-31T12:03:21;1.93;;;1.70;;
317;SDS011;146;53.448;10.228;2023-10-31T12:05:51;1.10;;;0.93;;
317;SDS011;146;53.448;10.228;2023-10-31T12:08:24;0.90;;;0.90;;
317;SDS011;146;53.448;10.228;2023-10-31T12:10:51;1.33;;;1.23;;
317;SDS011;146;53.448;10.228;2023-10-31T12:13:18;1.10;;;1.10;;
317;SDS011;146;53.448;10.228;2023-10-31T12:15:55;1.20;;;1.10;;
317;SDS011;146;53.448;10.228;2023-10-31T12:18:25;0.97;;;0.97;;
317;SDS011;146;53.448;10.228;2023-10-31T12:20:52;1.27;;;1.00;;
317;SDS011;146;53.448;10.228;2023-10-31T12:23:19;1.10;;;1.10;;
317;SDS011;146;53.448;10.228;2023-10-31T12:25:46;1.37;;;1.20;;
317;SDS011;146;53.448;10.228;2023-10-31T12:28:17;1.63;;;1.53;;
317;SDS011;146;53.448;10.228;2023-10-31T12:30:47;1.13;;;1.03;;
317;SDS011;146;53.448;10.228;2023-10-31T12:33:18;0.90;;;0.90;;
317;SDS011;146;53.448;10.228;2023-10-31T12:35:56;1.17;;;1.17;;
317;SDS011;146;53.448;10.228;2023-10-31T12:38:24;1.13;;;1.00;;
317;SDS011;146;53.448;10.228;2023-10-31T12:40:51;1.27;;;1.10;;
317;SDS011;146;53.448;10.228;2023-10-31T12:43:19;1.37;;;1.00;;
317;SDS011;146;53.448;10.228;2023-10-31T12:45:46;0.70;;;0.70;;
317;SDS011;146;53.448;10.228;2023-10-31T12:48:17;3.23;;;1.10;;
317;SDS011;146;53.448;10.228;2023-10-31T12:50:55;0.90;;;0.90;;
317;SDS011;146;53.448;10.228;2023-10-31T12:53:33;1.40;;;0.87;;
317;SDS011;146;53.448;10.228;2023-10-31T12:56:05;1.03;;;1.03;;
317;SDS011;146;53.448;10.228;2023-10-31T12:58:32;1.33;;;1.07;;
317;SDS011;146;53.448;10.228;2023-10-31T13:01:01;1.73;;;1.50;;
317;SDS011;146;53.448;10.228;2023-10-31T13:03:49;0.90;;;0.90;;
317;SDS011;146;53.448;10.228;2023-10-31T13:06:16;1.70;;;1.10;;
317;SDS011;146;53.448;10.228;2023-10-31T13:08:46;1.33;;;1.23;;
317;SDS011;146;53.448;10.228;2023-10-31T13:11:17;1.20;;;1.07;;
317;SDS011;146;53.448;10.228;2023-10-31T13:13:48;1.50;;;0.70;;
317;SDS011;146;53.448;10.228;2023-10-31T13:16:14;1.37;;;1.00;;
317;SDS011;146;53.448;10.228;2023-10-31T13:18:50;1.50;;;0.90;;
317;SDS011;146;53.448;10.228;2023-10-31T13:21:20;0.70;;;0.70;;
317;SDS011;146;53.448;10.228;2023-10-31T13:23:47;1.30;;;0.80;;
317;SDS011;146;53.448;10.228;2023-10-31T13:26:17;3.13;;;1.20;;
317;SDS011;146;53.448;10.228;2023-10-31T13:28:43;1.47;;;0.90;;
317;SDS011;146;53.448;10.228;2023-10-31T13:31:10;1.10;;;0.80;;
317;SDS011;146;53.448;10.228;2023-10-31T13:33:39;0.70;;;0.70;;
317;SDS011;146;53.448;10.228;2023-10-31T13:36:07;1.30;;;1.30;;
317;SDS011;146;53.448;10.228;2023-10-31T13:38:39;1.27;;;1.20;;
317;SDS011;146;53.448;10.228;2023-10-31T13:41:08;1.10;;;0.90;;
317;SDS011;146;53.448;10.228;2023-10-31T13:43:36;1.07;;;1.00;;
317;SDS011;146;53.448;10.228;2023-10-31T13:46:08;1.53;;;1.00;;
317;SDS011;146;53.448;10.228;2023-10-31T13:48:38;0.70;;;0.70;;
317;SDS011;146;53.448;10.228;2023-10-31T13:51:05;1.73;;;0.97;;
317;SDS011;146;53.448;10.228;2023-10-31T13:53:35;0.73;;;0.73;;
317;SDS011;146;53.448;10.228;2023-10-31T13:56:05;1.07;;;0.97;;
317;SDS011;146;53.448;10.228;2023-10-31T13:58:32;1.13;;;1.03;;
317;SDS011;146;53.448;10.228;2023-10-31T14:00:59;1.83;;;1.00;;
317;SDS011;146;53.448;10.228;2023-10-31T14:03:29;2.43;;;2.20;;
317;SDS011;146;53.448;10.228;2023-10-31T14:05:56;1.90;;;1.80;;
317;SDS011;146;53.448;10.228;2023-10-31T14:08:25;1.07;;;0.90;;
317;SDS011;146;53.448;10.228;2023-10-31T14:10:56;0.90;;;0.90;;
317;SDS011;146;53.448;10.228;2023-10-31T14:13:26;1.20;;;1.10;;
317;SDS011;146;53.448;10.228;2023-10-31T14:15:52;2.37;;;2.00;;
317;SDS011;146;53.448;10.228;2023-10-31T14:18:19;2.80;;;2.60;;
317;SDS011;146;53.448;10.228;2023-10-31T14:20:49;3.43;;;3.13;;
317;SDS011;146;53.448;10.228;2023-10-31T14:23:17;5.07;;;4.67;;
317;SDS011;146;53.448;10.228;2023-10-31T14:25:50;4.77;;;4.37;;
317;SDS011;146;53.448;10.228;2023-10-31T14:28:18;3.60;;;2.93;;
317;SDS011;146;53.448;10.228;2023-10-31T14:30:45;2.10;;;2.00;;
317;SDS011;146;53.448;10.228;2023-10-31T14:33:19;2.50;;;2.30;;
317;SDS011;146;53.448;10.228;2023-10-31T14:35:46;2.77;;;2.57;;
317;SDS011;146;53.448;10.228;2023-10-31T14:38:15;2.17;;;2.07;;
317;SDS011;146;53.448;10.228;2023-10-31T14:40:45;2.47;;;2.33;;
317;SDS011;146;53.448;10.228;2023-10-31T14:43:15;2.73;;;2.53;;
317;SDS011;146;53.448;10.228;2023-10-31T14:45:47;4.80;;;2.10;;
317;SDS011;146;53.448;10.228;2023-10-31T14:48:17;2.00;;;1.87;;
317;SDS011;146;53.448;10.228;2023-10-31T14:50:47;2.60;;;2.10;;
317;SDS011;146;53.448;10.228;2023-10-31T14:53:14;2.40;;;1.90;;
317;SDS011;146;53.448;10.228;2023-10-31T14:55:41;1.70;;;1.60;;
317;SDS011;146;53.448;10.228;2023-10-31T14:58:08;1.57;;;1.47;;
317;SDS011;146;53.448;10.228;2023-10-31T15:00:35;1.90;;;1.43;;
317;SDS011;146;53.448;10.228;2023-10-31T15:03:15;0.90;;;0.90;;
317;SDS011;146;53.448;10.228;2023-10-31T15:05:42;0.90;;;0.90;;
317;SDS011;146;53.448;10.228;2023-10-31T15:08:08;2.83;;;1.10;;
317;SDS011;146;53.448;10.228;2023-10-31T15:10:35;1.03;;;1.03;;
317;SDS011;146;53.448;10.228;2023-10-31T15:13:02;0.70;;;0.60;;
317;SDS011;146;53.448;10.228;2023-10-31T15:15:39;2.13;;;0.90;;
317;SDS011;146;53.448;10.228;2023-10-31T15:21:14;1.27;;;0.90;;
317;SDS011;146;53.448;10.228;2023-10-31T15:23:43;0.90;;;0.90;;
317;SDS011;146;53.448;10.228;2023-10-31T15:26:13;1.00;;;0.90;;
317;SDS011;146;53.448;10.228;2023-10-31T15:28:55;0.70;;;0.70;;
317;SDS011;146;53.448;10.228;2023-10-31T15:31:24;1.37;;;1.00;;
317;SDS011;146;53.448;10.228;2023-10-31T15:33:59;1.13;;;1.07;;
317;SDS011;146;53.448;10.228;2023-10-31T15:36:28;1.77;;;1.00;;
317;SDS011;146;53.448;10.228;2023-10-31T15:38:56;0.80;;;0.80;;
317;SDS011;146;53.448;10.228;2023-10-31T15:41:29;1.63;;;0.87;;
317;SDS011;146;53.448;10.228;2023-10-31T15:44:05;1.20;;;1.10;;
317;SDS011;146;53.448;10.228;2023-10-31T15:46:32;1.00;;;0.97;;